sensor_id;sensor_type;location;lat;lon;timestamp;pressure;altitude;pressure_sealevel;temperature;humidity
79006;BME280;69202;45.498;-73.582;2023-06-14T00:01:02;99547.09;;;20.89;57.91
79006;BME280;69202;45.498;-73.582;2023-06-14T00:03:31;99550.28;;;20.78;57.77
79006;BME280;69202;45.498;-73.582;2023-06-14T00:05:58;99847.94;;;22.68;56.81
79006;BME280;69202;45.498;-73.582;2023-06-14T00:08:24;99629.06;;;21.44;57.25
79006;BME280;69202;45.498;-73.582;2023-06-14T00:10:51;99820.44;;;22.49;54.53
79006;BME280;69202;45.498;-73.582;2023-06-14T00:13:17;99672.94;;;21.73;54.63
79006;BME280;69202;45.498;-73.582;2023-06-14T00:15:45;99848.56;;;22.84;55.60
79006;BME280;69202;45.498;-73.582;2023-06-14T00:18:12;99689.59;;;21.81;56.46
79006;BME280;69202;45.498;-73.582;2023-06-14T00:20:37;99891.28;;;23.00;56.53
79006;BME280;69202;45.498;-73.582;2023-06-14T00:23:05;99862.91;;;22.81;54.80
79006;BME280;69202;45.498;-73.582;2023-06-14T00:25:31;99669.53;;;21.62;55.07
79006;BME280;69202;45.498;-73.582;2023-06-14T00:27:57;99724.09;;;21.93;55.17
79006;BME280;69202;45.498;-73.582;2023-06-14T00:30:26;99681.84;;;21.65;55.54
79006;BME280;69202;45.498;-73.582;2023-06-14T00:32:56;99892.78;;;22.92;55.29
79006;BME280;69202;45.498;-73.582;2023-06-14T00:35:23;99863.59;;;22.72;55.07
79006;BME280;69202;45.498;-73.582;2023-06-14T00:37:52;99661.72;;;21.50;55.33
79006;BME280;69202;45.498;-73.582;2023-06-14T00:40:20;99793.91;;;22.21;55.66
79006;BME280;69202;45.498;-73.582;2023-06-14T00:42:47;99800.66;;;22.28;55.06
79006;BME280;69202;45.498;-73.582;2023-06-14T00:45:13;99788.00;;;22.08;55.36
79006;BME280;69202;45.498;-73.582;2023-06-14T00:47:41;99857.81;;;22.55;55.29
79006;BME280;69202;45.498;-73.582;2023-06-14T00:50:09;99798.88;;;22.18;55.40
79006;BME280;69202;45.498;-73.582;2023-06-14T00:52:35;99750.34;;;21.85;56.14
79006;BME280;69202;45.498;-73.582;2023-06-14T00:55:04;99864.13;;;22.56;56.10
79006;BME280;69202;45.498;-73.582;2023-06-14T00:57:31;99893.69;;;22.69;56.42
79006;BME280;69202;45.498;-73.582;2023-06-14T00:59:57;99905.00;;;22.67;56.99
79006;BME280;69202;45.498;-73.582;2023-06-14T01:02:23;99692.06;;;21.21;56.89
79006;BME280;69202;45.498;-73.582;2023-06-14T01:04:53;99891.78;;;22.32;56.68
79006;BME280;69202;45.498;-73.582;2023-06-14T01:07:38;99854.75;;;22.19;56.53
79006;BME280;69202;45.498;-73.582;2023-06-14T01:10:29;99913.78;;;22.51;55.36
79006;BME280;69202;45.498;-73.582;2023-06-14T01:13:32;99906.66;;;22.50;54.05
79006;BME280;69202;45.498;-73.582;2023-06-14T01:15:59;99768.34;;;21.58;53.25
79006;BME280;69202;45.498;-73.582;2023-06-14T01:18:28;99760.53;;;21.47;52.48
79006;BME280;69202;45.498;-73.582;2023-06-14T01:20:55;99833.34;;;21.73;51.61
79006;BME280;69202;45.498;-73.582;2023-06-14T01:23:23;99922.66;;;22.47;51.02
79006;BME280;69202;45.498;-73.582;2023-06-14T01:25:49;99885.59;;;22.21;50.97
79006;BME280;69202;45.498;-73.582;2023-06-14T01:28:20;99924.09;;;22.45;50.67
79006;BME280;69202;45.498;-73.582;2023-06-14T01:30:50;99856.53;;;21.91;50.33
79006;BME280;69202;45.498;-73.582;2023-06-14T01:33:20;99792.00;;;21.36;50.10
79006;BME280;69202;45.498;-73.582;2023-06-14T01:35:51;99792.84;;;21.55;49.58
79006;BME280;69202;45.498;-73.582;2023-06-14T01:38:19;99870.03;;;22.11;48.85
79006;BME280;69202;45.498;-73.582;2023-06-14T01:40:46;99832.44;;;21.78;48.22
79006;BME280;69202;45.498;-73.582;2023-06-14T01:43:14;99931.31;;;22.22;47.81
79006;BME280;69202;45.498;-73.582;2023-06-14T01:45:45;99929.59;;;22.26;47.07
79006;BME280;69202;45.498;-73.582;2023-06-14T01:48:13;99890.44;;;22.05;47.03
79006;BME280;69202;45.498;-73.582;2023-06-14T01:50:40;99909.41;;;22.12;47.23
79006;BME280;69202;45.498;-73.582;2023-06-14T01:53:07;99711.75;;;20.86;47.48
79006;BME280;69202;45.498;-73.582;2023-06-14T01:55:34;99926.22;;;22.29;46.14
79006;BME280;69202;45.498;-73.582;2023-06-14T01:58:05;99881.72;;;21.98;45.21
79006;BME280;69202;45.498;-73.582;2023-06-14T02:00:32;99820.03;;;21.61;44.84
79006;BME280;69202;45.498;-73.582;2023-06-14T02:02:58;99725.59;;;20.99;44.45
79006;BME280;69202;45.498;-73.582;2023-06-14T02:05:24;99937.25;;;22.29;44.28
79006;BME280;69202;45.498;-73.582;2023-06-14T02:07:50;99677.47;;;20.78;44.65
79006;BME280;69202;45.498;-73.582;2023-06-14T02:10:16;99922.28;;;22.16;44.76
79006;BME280;69202;45.498;-73.582;2023-06-14T02:12:43;99819.03;;;21.52;45.24
79006;BME280;69202;45.498;-73.582;2023-06-14T02:15:09;99882.84;;;21.97;45.52
79006;BME280;69202;45.498;-73.582;2023-06-14T02:17:43;99903.69;;;22.03;45.44
79006;BME280;69202;45.498;-73.582;2023-06-14T02:20:09;99917.16;;;22.10;45.09
79006;BME280;69202;45.498;-73.582;2023-06-14T02:22:35;99828.41;;;21.51;45.14
79006;BME280;69202;45.498;-73.582;2023-06-14T02:25:01;99895.34;;;21.89;45.09
79006;BME280;69202;45.498;-73.582;2023-06-14T02:27:27;99855.59;;;21.53;45.79
79006;BME280;69202;45.498;-73.582;2023-06-14T02:29:53;99732.34;;;20.59;46.79
79006;BME280;69202;45.498;-73.582;2023-06-14T02:32:19;99648.06;;;19.97;47.56
79006;BME280;69202;45.498;-73.582;2023-06-14T02:34:45;99589.78;;;19.81;47.22
79006;BME280;69202;45.498;-73.582;2023-06-14T02:37:15;99592.69;;;19.89;45.22
79006;BME280;69202;45.498;-73.582;2023-06-14T02:39:41;99861.63;;;21.55;43.78
79006;BME280;69202;45.498;-73.582;2023-06-14T02:42:07;99829.34;;;21.42;43.65
79006;BME280;69202;45.498;-73.582;2023-06-14T02:44:33;99634.88;;;19.99;42.79
79006;BME280;69202;45.498;-73.582;2023-06-14T02:46:59;99612.34;;;19.68;42.79
79006;BME280;69202;45.498;-73.582;2023-06-14T02:49:26;99754.00;;;20.90;43.39
79006;BME280;69202;45.498;-73.582;2023-06-14T02:51:52;99874.56;;;21.54;43.67
79006;BME280;69202;45.498;-73.582;2023-06-14T02:54:18;99923.94;;;21.70;44.94
79006;BME280;69202;45.498;-73.582;2023-06-14T02:56:44;99708.22;;;20.56;45.58
79006;BME280;69202;45.498;-73.582;2023-06-14T02:59:09;99784.91;;;21.06;45.10
79006;BME280;69202;45.498;-73.582;2023-06-14T03:01:36;99834.72;;;21.28;45.09
79006;BME280;69202;45.498;-73.582;2023-06-14T03:04:07;99903.25;;;21.48;43.67
79006;BME280;69202;45.498;-73.582;2023-06-14T03:06:34;99836.53;;;21.09;43.43
79006;BME280;69202;45.498;-73.582;2023-06-14T03:09:00;99884.53;;;21.50;43.17
79006;BME280;69202;45.498;-73.582;2023-06-14T03:11:30;99655.16;;;20.03;42.73
79006;BME280;69202;45.498;-73.582;2023-06-14T03:13:57;99704.19;;;20.14;43.71
79006;BME280;69202;45.498;-73.582;2023-06-14T03:16:26;99749.94;;;20.58;45.07
79006;BME280;69202;45.498;-73.582;2023-06-14T03:18:55;99492.13;;;18.78;45.88
79006;BME280;69202;45.498;-73.582;2023-06-14T03:21:22;99473.25;;;18.71;45.71
79006;BME280;69202;45.498;-73.582;2023-06-14T03:23:48;99572.31;;;19.27;45.86
79006;BME280;69202;45.498;-73.582;2023-06-14T03:26:14;99592.38;;;19.23;45.75
79006;BME280;69202;45.498;-73.582;2023-06-14T03:28:47;99521.09;;;18.84;46.00
79006;BME280;69202;45.498;-73.582;2023-06-14T03:31:17;99730.31;;;20.07;46.08
79006;BME280;69202;45.498;-73.582;2023-06-14T03:33:44;99910.88;;;20.93;45.51
79006;BME280;69202;45.498;-73.582;2023-06-14T03:36:28;99748.31;;;20.18;45.38
79006;BME280;69202;45.498;-73.582;2023-06-14T03:38:54;99714.22;;;19.95;45.54
79006;BME280;69202;45.498;-73.582;2023-06-14T03:41:20;99609.63;;;19.28;46.03
79006;BME280;69202;45.498;-73.582;2023-06-14T03:43:46;99713.75;;;19.83;46.33
79006;BME280;69202;45.498;-73.582;2023-06-14T03:46:12;99720.41;;;19.72;46.91
79006;BME280;69202;45.498;-73.582;2023-06-14T03:48:38;99538.63;;;18.83;47.59
79006;BME280;69202;45.498;-73.582;2023-06-14T03:51:04;99709.53;;;19.96;48.33
79006;BME280;69202;45.498;-73.582;2023-06-14T03:53:30;99841.00;;;20.75;48.53
79006;BME280;69202;45.498;-73.582;2023-06-14T03:55:57;99699.38;;;19.96;48.30
79006;BME280;69202;45.498;-73.582;2023-06-14T03:58:23;99700.03;;;19.83;48.37
79006;BME280;69202;45.498;-73.582;2023-06-14T04:00:49;99756.78;;;20.27;47.86
79006;BME280;69202;45.498;-73.582;2023-06-14T04:03:15;99829.78;;;20.67;46.73
79006;BME280;69202;45.498;-73.582;2023-06-14T04:05:41;99622.91;;;19.45;45.70
79006;BME280;69202;45.498;-73.582;2023-06-14T04:08:08;99865.34;;;20.87;45.37
79006;BME280;69202;45.498;-73.582;2023-06-14T04:10:35;99694.59;;;20.12;45.42
79006;BME280;69202;45.498;-73.582;2023-06-14T04:13:00;99637.59;;;19.70;45.74
79006;BME280;69202;45.498;-73.582;2023-06-14T04:15:26;99819.06;;;20.94;45.27
79006;BME280;69202;45.498;-73.582;2023-06-14T04:17:55;99762.84;;;20.58;44.72
79006;BME280;69202;45.498;-73.582;2023-06-14T04:20:23;99804.00;;;20.92;44.91
79006;BME280;69202;45.498;-73.582;2023-06-14T04:22:52;99703.50;;;20.28;44.59
79006;BME280;69202;45.498;-73.582;2023-06-14T04:25:18;99811.38;;;20.96;44.67
79006;BME280;69202;45.498;-73.582;2023-06-14T04:27:44;99758.09;;;20.63;44.70
79006;BME280;69202;45.498;-73.582;2023-06-14T04:30:12;99725.28;;;20.53;45.60
79006;BME280;69202;45.498;-73.582;2023-06-14T04:32:38;99751.47;;;20.69;46.88
79006;BME280;69202;45.498;-73.582;2023-06-14T04:35:06;99757.34;;;20.58;47.45
79006;BME280;69202;45.498;-73.582;2023-06-14T04:37:32;99715.44;;;20.42;48.21
79006;BME280;69202;45.498;-73.582;2023-06-14T04:39:59;99703.56;;;20.23;47.99
79006;BME280;69202;45.498;-73.582;2023-06-14T04:42:25;99694.25;;;20.18;48.37
79006;BME280;69202;45.498;-73.582;2023-06-14T04:44:55;99713.34;;;20.34;48.31
79006;BME280;69202;45.498;-73.582;2023-06-14T04:49:47;99707.59;;;20.30;48.37
79006;BME280;69202;45.498;-73.582;2023-06-14T04:52:13;99812.34;;;20.82;48.58
79006;BME280;69202;45.498;-73.582;2023-06-14T04:54:40;99732.00;;;20.32;49.31
79006;BME280;69202;45.498;-73.582;2023-06-14T04:57:09;99789.19;;;20.64;49.46
79006;BME280;69202;45.498;-73.582;2023-06-14T04:59:40;99746.00;;;20.35;49.36
79006;BME280;69202;45.498;-73.582;2023-06-14T05:02:06;99787.81;;;20.61;49.10
79006;BME280;69202;45.498;-73.582;2023-06-14T05:04:32;99734.00;;;20.26;49.52
79006;BME280;69202;45.498;-73.582;2023-06-14T05:06:59;99545.63;;;19.09;49.58
79006;BME280;69202;45.498;-73.582;2023-06-14T05:09:25;99773.69;;;20.44;49.97
79006;BME280;69202;45.498;-73.582;2023-06-14T05:11:51;99745.66;;;20.08;49.89
79006;BME280;69202;45.498;-73.582;2023-06-14T05:14:17;99807.28;;;20.65;49.40
79006;BME280;69202;45.498;-73.582;2023-06-14T05:16:43;99779.72;;;20.41;49.70
79006;BME280;69202;45.498;-73.582;2023-06-14T05:19:09;99728.16;;;19.99;50.07
79006;BME280;69202;45.498;-73.582;2023-06-14T05:21:36;99810.31;;;20.63;49.73
79006;BME280;69202;45.498;-73.582;2023-06-14T05:24:03;99714.97;;;20.01;49.88
79006;BME280;69202;45.498;-73.582;2023-06-14T05:26:29;99609.31;;;19.30;49.88
79006;BME280;69202;45.498;-73.582;2023-06-14T05:28:58;99740.59;;;20.25;50.14
79006;BME280;69202;45.498;-73.582;2023-06-14T05:31:27;99736.59;;;20.12;50.74
79006;BME280;69202;45.498;-73.582;2023-06-14T05:33:53;99583.69;;;19.06;50.98
79006;BME280;69202;45.498;-73.582;2023-06-14T05:36:20;99718.63;;;19.91;50.79
79006;BME280;69202;45.498;-73.582;2023-06-14T05:38:49;99788.25;;;20.44;51.01
79006;BME280;69202;45.498;-73.582;2023-06-14T05:41:16;99780.34;;;20.33;50.92
79006;BME280;69202;45.498;-73.582;2023-06-14T05:43:42;99733.28;;;20.10;51.65
79006;BME280;69202;45.498;-73.582;2023-06-14T05:46:08;99765.53;;;20.29;51.09
79006;BME280;69202;45.498;-73.582;2023-06-14T05:48:34;99762.34;;;20.16;51.07
79006;BME280;69202;45.498;-73.582;2023-06-14T05:51:03;99752.47;;;20.15;50.45
79006;BME280;69202;45.498;-73.582;2023-06-14T05:53:29;99727.06;;;20.00;50.37
79006;BME280;69202;45.498;-73.582;2023-06-14T05:55:54;99668.66;;;19.60;50.70
79006;BME280;69202;45.498;-73.582;2023-06-14T05:58:21;99735.06;;;19.96;50.69
79006;BME280;69202;45.498;-73.582;2023-06-14T06:00:47;99734.81;;;19.93;50.76
79006;BME280;69202;45.498;-73.582;2023-06-14T06:03:13;99705.66;;;19.63;49.61
79006;BME280;69202;45.498;-73.582;2023-06-14T06:05:39;99677.44;;;19.57;49.87
79006;BME280;69202;45.498;-73.582;2023-06-14T06:08:05;99771.72;;;20.10;50.30
79006;BME280;69202;45.498;-73.582;2023-06-14T06:10:31;99778.56;;;20.13;50.14
79006;BME280;69202;45.498;-73.582;2023-06-14T06:12:57;99757.22;;;20.05;50.17
79006;BME280;69202;45.498;-73.582;2023-06-14T06:15:23;99734.53;;;19.89;50.61
79006;BME280;69202;45.498;-73.582;2023-06-14T06:17:50;99634.00;;;19.25;50.61
79006;BME280;69202;45.498;-73.582;2023-06-14T06:20:16;99808.41;;;20.25;50.54
79006;BME280;69202;45.498;-73.582;2023-06-14T06:22:43;99679.06;;;19.58;51.00
79006;BME280;69202;45.498;-73.582;2023-06-14T06:25:09;99789.75;;;20.22;51.19
79006;BME280;69202;45.498;-73.582;2023-06-14T06:27:35;99712.44;;;19.75;51.16
79006;BME280;69202;45.498;-73.582;2023-06-14T06:30:03;99785.63;;;20.24;51.42
79006;BME280;69202;45.498;-73.582;2023-06-14T06:32:29;99765.47;;;20.00;51.03
79006;BME280;69202;45.498;-73.582;2023-06-14T06:34:55;99784.31;;;20.16;51.47
79006;BME280;69202;45.498;-73.582;2023-06-14T06:37:21;99787.88;;;20.17;51.60
79006;BME280;69202;45.498;-73.582;2023-06-14T06:39:47;99775.56;;;20.09;51.70
79006;BME280;69202;45.498;-73.582;2023-06-14T06:42:13;99787.66;;;20.08;51.90
79006;BME280;69202;45.498;-73.582;2023-06-14T06:44:39;99780.97;;;20.19;52.05
79006;BME280;69202;45.498;-73.582;2023-06-14T06:47:05;99685.69;;;19.47;51.48
79006;BME280;69202;45.498;-73.582;2023-06-14T06:49:31;99742.81;;;19.84;51.69
79006;BME280;69202;45.498;-73.582;2023-06-14T06:52:04;99785.69;;;20.14;51.70
79006;BME280;69202;45.498;-73.582;2023-06-14T06:54:32;99783.25;;;20.12;51.61
79006;BME280;69202;45.498;-73.582;2023-06-14T06:56:58;99753.31;;;19.72;51.39
79006;BME280;69202;45.498;-73.582;2023-06-14T06:59:24;99711.66;;;19.70;51.53
79006;BME280;69202;45.498;-73.582;2023-06-14T07:01:50;99720.66;;;19.75;51.43
79006;BME280;69202;45.498;-73.582;2023-06-14T07:04:16;99727.19;;;19.84;51.39
79006;BME280;69202;45.498;-73.582;2023-06-14T07:06:43;99790.31;;;20.18;51.91
79006;BME280;69202;45.498;-73.582;2023-06-14T07:09:09;99773.09;;;20.08;52.14
79006;BME280;69202;45.498;-73.582;2023-06-14T07:11:40;99778.53;;;20.18;51.97
79006;BME280;69202;45.498;-73.582;2023-06-14T07:14:06;99746.56;;;19.98;51.85
79006;BME280;69202;45.498;-73.582;2023-06-14T07:16:32;99731.03;;;19.83;52.11
79006;BME280;69202;45.498;-73.582;2023-06-14T07:18:58;99766.28;;;20.00;52.00
79006;BME280;69202;45.498;-73.582;2023-06-14T07:21:24;99658.53;;;19.50;51.86
79006;BME280;69202;45.498;-73.582;2023-06-14T07:23:54;99666.47;;;19.52;52.13
79006;BME280;69202;45.498;-73.582;2023-06-14T07:26:21;99750.13;;;19.99;52.11
79006;BME280;69202;45.498;-73.582;2023-06-14T07:28:48;99678.78;;;19.54;51.89
79006;BME280;69202;45.498;-73.582;2023-06-14T07:31:14;99782.72;;;20.05;52.19
79006;BME280;69202;45.498;-73.582;2023-06-14T07:33:42;99716.28;;;19.74;52.36
79006;BME280;69202;45.498;-73.582;2023-06-14T07:36:08;99770.13;;;20.04;52.47
79006;BME280;69202;45.498;-73.582;2023-06-14T07:38:34;99705.97;;;19.56;52.25
79006;BME280;69202;45.498;-73.582;2023-06-14T07:41:00;99777.25;;;20.05;52.03
79006;BME280;69202;45.498;-73.582;2023-06-14T07:43:27;99760.28;;;19.98;52.02
79006;BME280;69202;45.498;-73.582;2023-06-14T07:45:53;99721.97;;;19.83;52.04
79006;BME280;69202;45.498;-73.582;2023-06-14T07:48:18;99667.59;;;19.51;52.02
79006;BME280;69202;45.498;-73.582;2023-06-14T07:50:45;99708.97;;;19.54;52.07
79006;BME280;69202;45.498;-73.582;2023-06-14T07:53:10;99769.63;;;19.97;52.51
79006;BME280;69202;45.498;-73.582;2023-06-14T07:55:36;99658.69;;;19.25;52.30
79006;BME280;69202;45.498;-73.582;2023-06-14T07:58:11;99709.53;;;19.56;52.81
79006;BME280;69202;45.498;-73.582;2023-06-14T08:00:37;99719.66;;;19.56;53.10
79006;BME280;69202;45.498;-73.582;2023-06-14T08:03:03;99733.84;;;19.73;52.79
79006;BME280;69202;45.498;-73.582;2023-06-14T08:05:29;99768.84;;;19.92;52.18
79006;BME280;69202;45.498;-73.582;2023-06-14T08:07:55;99750.06;;;19.70;51.38
79006;BME280;69202;45.498;-73.582;2023-06-14T08:10:22;99773.50;;;19.91;51.63
79006;BME280;69202;45.498;-73.582;2023-06-14T08:12:48;99705.69;;;19.52;51.81
79006;BME280;69202;45.498;-73.582;2023-06-14T08:15:16;99759.00;;;19.85;51.45
79006;BME280;69202;45.498;-73.582;2023-06-14T08:17:43;99763.94;;;19.83;51.88
79006;BME280;69202;45.498;-73.582;2023-06-14T08:20:09;99718.84;;;19.60;51.97
79006;BME280;69202;45.498;-73.582;2023-06-14T08:22:36;99743.94;;;19.78;52.13
79006;BME280;69202;45.498;-73.582;2023-06-14T08:25:03;99602.72;;;18.87;52.35
79006;BME280;69202;45.498;-73.582;2023-06-14T08:27:30;99731.41;;;19.67;51.79
79006;BME280;69202;45.498;-73.582;2023-06-14T08:29:56;99698.28;;;19.48;49.75
79006;BME280;69202;45.498;-73.582;2023-06-14T08:32:22;99651.03;;;19.17;50.60
79006;BME280;69202;45.498;-73.582;2023-06-14T08:34:48;99742.91;;;19.69;51.32
79006;BME280;69202;45.498;-73.582;2023-06-14T08:37:14;99702.47;;;19.40;51.71
79006;BME280;69202;45.498;-73.582;2023-06-14T08:39:40;99698.97;;;19.29;51.32
79006;BME280;69202;45.498;-73.582;2023-06-14T08:42:08;99679.78;;;19.24;51.53
79006;BME280;69202;45.498;-73.582;2023-06-14T08:44:35;99718.94;;;19.35;51.55
79006;BME280;69202;45.498;-73.582;2023-06-14T08:47:01;99693.53;;;19.19;50.00
79006;BME280;69202;45.498;-73.582;2023-06-14T08:49:29;99714.31;;;19.30;49.83
79006;BME280;69202;45.498;-73.582;2023-06-14T08:52:00;99665.94;;;19.00;49.59
79006;BME280;69202;45.498;-73.582;2023-06-14T08:54:30;99725.81;;;19.32;47.81
79006;BME280;69202;45.498;-73.582;2023-06-14T08:56:58;99721.72;;;19.30;45.99
79006;BME280;69202;45.498;-73.582;2023-06-14T08:59:28;99670.84;;;19.03;46.01
79006;BME280;69202;45.498;-73.582;2023-06-14T09:01:54;99645.16;;;18.89;46.50
79006;BME280;69202;45.498;-73.582;2023-06-14T09:04:21;99716.22;;;19.30;45.29
79006;BME280;69202;45.498;-73.582;2023-06-14T09:06:48;99717.81;;;19.41;44.70
79006;BME280;69202;45.498;-73.582;2023-06-14T09:09:23;99584.75;;;18.65;44.58
79006;BME280;69202;45.498;-73.582;2023-06-14T09:11:50;99675.66;;;19.32;44.41
79006;BME280;69202;45.498;-73.582;2023-06-14T09:14:17;99666.56;;;19.37;44.42
79006;BME280;69202;45.498;-73.582;2023-06-14T09:16:43;99507.63;;;18.33;44.33
79006;BME280;69202;45.498;-73.582;2023-06-14T09:19:14;99597.47;;;18.95;44.22
79006;BME280;69202;45.498;-73.582;2023-06-14T09:21:47;99695.78;;;19.62;44.30
79006;BME280;69202;45.498;-73.582;2023-06-14T09:24:14;99663.44;;;19.53;44.05
79006;BME280;69202;45.498;-73.582;2023-06-14T09:26:40;99704.72;;;19.77;43.63
79006;BME280;69202;45.498;-73.582;2023-06-14T09:29:06;99669.22;;;19.52;43.57
79006;BME280;69202;45.498;-73.582;2023-06-14T09:31:32;99593.53;;;19.12;43.76
79006;BME280;69202;45.498;-73.582;2023-06-14T09:34:02;99632.38;;;19.24;44.00
79006;BME280;69202;45.498;-73.582;2023-06-14T09:36:28;99660.72;;;19.48;43.57
79006;BME280;69202;45.498;-73.582;2023-06-14T09:39:02;99681.28;;;19.51;44.20
79006;BME280;69202;45.498;-73.582;2023-06-14T09:41:35;99705.06;;;19.66;43.80
79006;BME280;69202;45.498;-73.582;2023-06-14T09:44:03;99649.09;;;19.22;44.23
79006;BME280;69202;45.498;-73.582;2023-06-14T09:46:30;99415.44;;;17.74;46.03
79006;BME280;69202;45.498;-73.582;2023-06-14T09:48:59;99698.56;;;19.56;46.96
79006;BME280;69202;45.498;-73.582;2023-06-14T09:51:27;99694.50;;;19.44;47.62
79006;BME280;69202;45.498;-73.582;2023-06-14T09:53:57;99704.59;;;19.48;47.99
79006;BME280;69202;45.498;-73.582;2023-06-14T09:56:34;99655.47;;;19.13;48.23
79006;BME280;69202;45.498;-73.582;2023-06-14T09:59:04;99600.00;;;18.82;48.93
79006;BME280;69202;45.498;-73.582;2023-06-14T10:01:31;99622.97;;;18.91;48.91
79006;BME280;69202;45.498;-73.582;2023-06-14T10:04:07;99618.03;;;18.93;48.87
79006;BME280;69202;45.498;-73.582;2023-06-14T10:06:37;99654.94;;;19.11;49.62
79006;BME280;69202;45.498;-73.582;2023-06-14T10:09:08;99642.34;;;19.10;49.62
79006;BME280;69202;45.498;-73.582;2023-06-14T10:11:35;99649.13;;;19.17;50.18
79006;BME280;69202;45.498;-73.582;2023-06-14T10:14:04;99693.09;;;19.51;50.22
79006;BME280;69202;45.498;-73.582;2023-06-14T10:16:34;99695.00;;;19.56;49.32
79006;BME280;69202;45.498;-73.582;2023-06-14T10:19:11;99688.66;;;19.60;48.84
79006;BME280;69202;45.498;-73.582;2023-06-14T10:22:03;99694.94;;;19.66;48.71
79006;BME280;69202;45.498;-73.582;2023-06-14T10:24:44;99692.97;;;19.72;48.54
79006;BME280;69202;45.498;-73.582;2023-06-14T10:27:13;99691.81;;;19.78;48.57
79006;BME280;69202;45.498;-73.582;2023-06-14T10:30:03;99683.03;;;19.81;48.52
79006;BME280;69202;45.498;-73.582;2023-06-14T10:32:32;99607.63;;;19.39;48.55
79006;BME280;69202;45.498;-73.582;2023-06-14T10:35:01;99680.78;;;19.88;48.34
79006;BME280;69202;45.498;-73.582;2023-06-14T10:37:29;99645.03;;;19.64;48.22
79006;BME280;69202;45.498;-73.582;2023-06-14T10:39:56;99576.47;;;19.25;47.95
79006;BME280;69202;45.498;-73.582;2023-06-14T10:42:27;99636.06;;;19.48;48.01
79006;BME280;69202;45.498;-73.582;2023-06-14T10:44:55;99684.25;;;19.99;48.11
79006;BME280;69202;45.498;-73.582;2023-06-14T10:50:12;99676.53;;;20.06;48.65
79006;BME280;69202;45.498;-73.582;2023-06-14T10:52:41;99691.31;;;20.10;49.21
79006;BME280;69202;45.498;-73.582;2023-06-14T10:55:10;99689.56;;;20.19;49.26
79006;BME280;69202;45.498;-73.582;2023-06-14T10:57:48;99500.75;;;18.95;49.34
79006;BME280;69202;45.498;-73.582;2023-06-14T11:00:18;99605.75;;;19.69;49.72
79006;BME280;69202;45.498;-73.582;2023-06-14T11:05:27;99673.31;;;20.28;49.51
79006;BME280;69202;45.498;-73.582;2023-06-14T11:10:39;99659.09;;;20.21;48.51
79006;BME280;69202;45.498;-73.582;2023-06-14T11:13:07;99681.16;;;20.39;47.55
79006;BME280;69202;45.498;-73.582;2023-06-14T11:15:35;99676.19;;;20.46;47.42
79006;BME280;69202;45.498;-73.582;2023-06-14T11:18:08;99621.84;;;20.14;47.12
79006;BME280;69202;45.498;-73.582;2023-06-14T11:20:37;99685.72;;;20.54;46.94
79006;BME280;69202;45.498;-73.582;2023-06-14T11:23:03;99629.97;;;20.25;46.29
79006;BME280;69202;45.498;-73.582;2023-06-14T11:25:30;99607.59;;;20.12;46.45
79006;BME280;69202;45.498;-73.582;2023-06-14T11:27:57;99641.06;;;20.43;46.63
79006;BME280;69202;45.498;-73.582;2023-06-14T11:30:23;99647.38;;;20.44;47.38
79006;BME280;69202;45.498;-73.582;2023-06-14T11:32:52;99684.72;;;20.69;47.83
79006;BME280;69202;45.498;-73.582;2023-06-14T11:35:21;99606.81;;;20.31;47.73
79006;BME280;69202;45.498;-73.582;2023-06-14T11:37:50;99658.41;;;20.63;48.10
79006;BME280;69202;45.498;-73.582;2023-06-14T11:40:17;99633.94;;;20.37;48.22
79006;BME280;69202;45.498;-73.582;2023-06-14T11:42:43;99650.75;;;20.60;48.19
79006;BME280;69202;45.498;-73.582;2023-06-14T11:45:11;99680.72;;;20.85;48.61
79006;BME280;69202;45.498;-73.582;2023-06-14T11:47:38;99688.28;;;20.93;48.31
79006;BME280;69202;45.498;-73.582;2023-06-14T11:50:06;99673.16;;;20.96;48.30
79006;BME280;69202;45.498;-73.582;2023-06-14T11:52:34;99616.16;;;20.59;47.40
79006;BME280;69202;45.498;-73.582;2023-06-14T11:55:01;99631.19;;;20.66;47.20
79006;BME280;69202;45.498;-73.582;2023-06-14T11:57:33;99637.44;;;20.72;47.49
79006;BME280;69202;45.498;-73.582;2023-06-14T12:00:00;99670.13;;;20.97;47.62
79006;BME280;69202;45.498;-73.582;2023-06-14T12:02:31;99679.47;;;20.96;45.46
79006;BME280;69202;45.498;-73.582;2023-06-14T12:05:04;99695.13;;;21.20;46.11
79006;BME280;69202;45.498;-73.582;2023-06-14T12:07:39;99696.75;;;21.21;45.54
79006;BME280;69202;45.498;-73.582;2023-06-14T12:10:08;99627.13;;;20.83;45.13
79006;BME280;69202;45.498;-73.582;2023-06-14T12:12:39;99692.28;;;21.25;44.42
79006;BME280;69202;45.498;-73.582;2023-06-14T12:15:06;99686.88;;;21.20;44.19
79006;BME280;69202;45.498;-73.582;2023-06-14T12:17:37;99677.63;;;21.11;44.26
79006;BME280;69202;45.498;-73.582;2023-06-14T12:20:11;99667.88;;;20.99;44.30
79006;BME280;69202;45.498;-73.582;2023-06-14T12:25:31;99678.66;;;20.96;44.83
79006;BME280;69202;45.498;-73.582;2023-06-14T12:28:08;99668.78;;;20.95;45.14
79006;BME280;69202;45.498;-73.582;2023-06-14T12:30:35;99678.41;;;21.16;43.93
79006;BME280;69202;45.498;-73.582;2023-06-14T12:33:02;99659.00;;;20.84;43.32
79006;BME280;69202;45.498;-73.582;2023-06-14T12:35:28;99623.09;;;20.99;42.33
79006;BME280;69202;45.498;-73.582;2023-06-14T12:37:54;99691.66;;;21.33;41.66
79006;BME280;69202;45.498;-73.582;2023-06-14T12:40:20;99667.16;;;21.37;41.33
79006;BME280;69202;45.498;-73.582;2023-06-14T12:42:46;99588.22;;;20.94;42.01
79006;BME280;69202;45.498;-73.582;2023-06-14T12:45:13;99416.84;;;19.91;41.89
79006;BME280;69202;45.498;-73.582;2023-06-14T12:47:39;99665.59;;;21.49;40.30
79006;BME280;69202;45.498;-73.582;2023-06-14T12:50:05;99679.25;;;21.54;39.02
79006;BME280;69202;45.498;-73.582;2023-06-14T12:52:32;99537.53;;;20.87;39.95
79006;BME280;69202;45.498;-73.582;2023-06-14T12:55:02;99594.91;;;21.31;40.37
79006;BME280;69202;45.498;-73.582;2023-06-14T12:57:28;99590.81;;;21.28;40.25